createdAt,value
2019-04-14T00:00:09.784Z,100759
2019-04-14T00:05:08.832Z,100751
2019-04-14T00:10:09.338Z,100742
2019-04-14T00:15:21.032Z,100735
2019-04-14T00:20:09.533Z,100744
2019-04-14T00:25:08.919Z,100732
2019-04-14T00:30:09.700Z,100751
2019-04-14T00:35:08.881Z,100745
2019-04-14T00:40:08.890Z,100750
2019-04-14T00:45:09.148Z,100735
2019-04-14T00:50:10.044Z,100726
2019-04-14T00:55:09.677Z,100736
2019-04-14T01:00:10.289Z,100736
2019-04-14T01:05:09.052Z,100731
2019-04-14T01:10:08.910Z,100728
2019-04-14T01:15:09.254Z,100729
2019-04-14T01:20:09.989Z,100724
2019-04-14T01:25:08.949Z,100719
2019-04-14T01:30:08.905Z,100717
2019-04-14T01:35:09.625Z,100712
2019-04-14T01:40:09.923Z,100718
2019-04-14T01:45:09.934Z,100727
2019-04-14T01:50:08.914Z,100725
2019-04-14T01:55:09.123Z,100738
2019-04-14T02:00:09.828Z,100733
2019-04-14T02:05:08.960Z,100724
2019-04-14T02:10:08.975Z,100734
2019-04-14T02:15:09.115Z,100733
2019-04-14T02:20:10.018Z,100740
2019-04-14T02:25:09.899Z,100748
2019-04-14T02:30:10.039Z,100742
2019-04-14T02:35:36.551Z,100734
2019-04-14T02:40:43.529Z,100733
2019-04-14T02:45:42.652Z,100732
2019-04-14T02:50:29.795Z,100731
2019-04-14T02:55:29.432Z,100731
2019-04-14T03:00:40.895Z,100738
2019-04-14T03:05:33.880Z,100732
2019-04-14T03:10:47.040Z,100729
2019-04-14T03:20:31.586Z,100729
2019-04-14T03:25:27.532Z,100730
2019-04-14T03:30:56.686Z,100730
2019-04-14T03:40:39.383Z,100737
2019-04-14T03:45:42.665Z,100738
2019-04-14T03:55:20.074Z,100733
2019-04-14T04:00:09.587Z,100733
2019-04-14T04:05:09.023Z,100738
2019-04-14T04:10:09.337Z,100729
2019-04-14T04:15:08.949Z,100736
2019-04-14T04:20:09.080Z,100733
2019-04-14T04:25:09.406Z,100738
2019-04-14T04:30:10.095Z,100735
2019-04-14T04:35:08.992Z,100737
2019-04-14T04:40:09.362Z,100738
2019-04-14T04:45:10.275Z,100740
2019-04-14T04:50:08.966Z,100736
2019-04-14T04:55:09.008Z,100741
2019-04-14T05:00:09.266Z,100747
2019-04-14T05:05:09.853Z,100735
2019-04-14T05:10:09.071Z,100744
2019-04-14T05:15:09.418Z,100744
2019-04-14T05:20:09.527Z,100750
2019-04-14T05:25:10.019Z,100762
2019-04-14T05:30:09.118Z,100766
2019-04-14T05:35:09.604Z,100773
2019-04-14T05:40:10.155Z,100773
2019-04-14T05:45:08.989Z,100774
2019-04-14T05:50:09.493Z,100771
2019-04-14T05:55:09.067Z,100773
2019-04-14T06:00:10.207Z,100775
2019-04-14T06:05:11.250Z,100771
2019-04-14T06:10:09.044Z,100781
2019-04-14T06:15:09.090Z,100775
2019-04-14T06:20:09.039Z,100787
2019-04-14T06:25:09.085Z,100790
2019-04-14T06:30:09.067Z,100791
2019-04-14T06:35:09.043Z,100788
2019-04-14T06:40:09.043Z,100796
2019-04-14T06:45:09.062Z,100801
2019-04-14T06:50:09.088Z,100795
2019-04-14T06:55:09.093Z,100804
2019-04-14T07:00:09.062Z,100798
2019-04-14T07:05:09.108Z,100803
2019-04-14T07:10:09.061Z,100804
2019-04-14T07:15:09.098Z,100805
2019-04-14T07:20:09.040Z,100811
2019-04-14T07:25:09.066Z,100812
2019-04-14T07:30:09.105Z,100816
2019-04-14T07:35:09.039Z,100807
2019-04-14T07:40:09.130Z,100817
2019-04-14T07:45:09.079Z,100815
2019-04-14T07:50:14.662Z,100824
2019-04-14T07:55:09.126Z,100819
2019-04-14T08:00:09.056Z,100831
2019-04-14T08:05:09.086Z,100834
2019-04-14T08:10:09.136Z,100844
2019-04-14T08:15:09.134Z,100836
2019-04-14T08:20:09.065Z,100846
2019-04-14T08:25:09.140Z,100844
2019-04-14T08:30:09.140Z,100832
2019-04-14T08:35:09.096Z,100830
2019-04-14T08:40:09.151Z,100850
2019-04-14T08:45:09.114Z,100856
2019-04-14T08:50:09.111Z,100860
2019-04-14T08:55:09.076Z,100860
2019-04-14T09:00:09.081Z,100853
2019-04-14T09:05:09.169Z,100860
2019-04-14T09:10:09.134Z,100851
2019-04-14T09:15:09.121Z,100830
2019-04-14T09:20:09.119Z,100847
2019-04-14T09:25:09.118Z,100851
2019-04-14T09:30:09.172Z,100854
2019-04-14T09:35:09.126Z,100853
2019-04-14T09:40:09.152Z,100855
2019-04-14T09:45:09.133Z,100858
2019-04-14T09:50:09.200Z,100857
2019-04-14T09:55:09.142Z,100860
2019-04-14T10:00:09.146Z,100865
2019-04-14T10:05:09.150Z,100863
2019-04-14T10:10:09.184Z,100857
2019-04-14T10:15:09.151Z,100866
2019-04-14T10:20:09.185Z,100870
2019-04-14T10:25:09.148Z,100866
2019-04-14T10:30:09.127Z,100872
2019-04-14T10:35:09.215Z,100882
2019-04-14T10:40:09.171Z,100880
2019-04-14T10:45:09.211Z,100884
2019-04-14T10:50:09.161Z,100884
2019-04-14T10:55:09.198Z,100881
2019-04-14T11:00:09.209Z,100870
2019-04-14T11:05:09.169Z,100866
2019-04-14T11:10:09.211Z,100869
2019-04-14T11:15:09.179Z,100856
2019-04-14T11:20:09.178Z,100869
2019-04-14T11:25:09.216Z,100867
2019-04-14T11:30:09.152Z,100857
2019-04-14T11:35:09.232Z,100878
2019-04-14T11:40:09.160Z,100878
2019-04-14T11:45:09.199Z,100885
2019-04-14T11:50:09.206Z,100876
2019-04-14T11:55:09.199Z,100886
2019-04-14T12:00:09.204Z,100884
2019-04-14T12:05:09.228Z,100888
2019-04-14T12:10:09.206Z,100893
2019-04-14T12:15:15.810Z,100890
2019-04-14T12:20:09.199Z,100887
2019-04-14T12:25:09.255Z,100893
2019-04-14T12:30:09.226Z,100889
2019-04-14T12:35:09.255Z,100885
2019-04-14T12:40:10.199Z,100878
2019-04-14T12:45:09.253Z,100881
2019-04-14T12:50:09.261Z,100879
2019-04-14T12:55:09.203Z,100890
2019-04-14T13:00:09.264Z,100883
2019-04-14T13:05:09.229Z,100878
2019-04-14T13:10:09.198Z,100876
2019-04-14T13:15:09.240Z,100881
2019-04-14T13:20:09.285Z,100885
2019-04-14T13:25:09.232Z,100873
2019-04-14T13:30:09.265Z,100888
2019-04-14T13:35:09.262Z,100886
2019-04-14T13:40:09.239Z,100881
2019-04-14T13:45:09.282Z,100874
2019-04-14T13:50:09.289Z,100873
2019-04-14T13:55:09.290Z,100867
2019-04-14T14:00:09.302Z,100869
2019-04-14T14:05:09.256Z,100864
2019-04-14T14:10:09.291Z,100855
2019-04-14T14:15:09.259Z,100854
2019-04-14T14:20:09.290Z,100871
2019-04-14T14:25:09.232Z,100866
2019-04-14T14:30:09.270Z,100857
2019-04-14T14:35:09.238Z,100866
2019-04-14T14:40:09.274Z,100854
2019-04-14T14:45:09.282Z,100854
2019-04-14T14:50:09.306Z,100860
2019-04-14T14:55:09.250Z,100852
2019-04-14T15:00:09.286Z,100856
2019-04-14T15:05:09.315Z,100850
2019-04-14T15:10:09.291Z,100852
2019-04-14T15:15:09.331Z,100850
2019-04-14T15:20:09.298Z,100851
2019-04-14T15:25:09.264Z,100858
2019-04-14T15:30:09.304Z,100864
2019-04-14T15:35:09.272Z,100863
2019-04-14T15:40:09.343Z,100869
2019-04-14T15:45:09.313Z,100859
2019-04-14T15:50:09.277Z,100862
2019-04-14T15:55:09.320Z,100862
2019-04-14T16:00:09.279Z,100870
2019-04-14T16:05:09.337Z,100867
2019-04-14T16:10:09.308Z,100866
2019-04-14T16:15:09.326Z,100872
2019-04-14T16:20:09.358Z,100870
2019-04-14T16:25:09.313Z,100863
2019-04-14T16:30:09.369Z,100875
2019-04-14T16:35:09.321Z,100877
2019-04-14T16:40:09.320Z,100870
2019-04-14T16:45:09.336Z,100874
2019-04-14T16:50:09.360Z,100878
2019-04-14T16:55:09.330Z,100871
2019-04-14T17:00:09.380Z,100866
2019-04-14T17:05:09.378Z,100874
2019-04-14T17:10:09.318Z,100871
2019-04-14T17:15:09.373Z,100877
2019-04-14T17:20:09.313Z,100887
2019-04-14T17:25:09.391Z,100886
2019-04-14T17:30:09.360Z,100886
2019-04-14T17:35:09.352Z,100905
2019-04-14T17:40:09.372Z,100906
2019-04-14T17:45:09.361Z,100899
2019-04-14T17:50:09.402Z,100908
2019-04-14T17:55:09.360Z,100909
2019-04-14T18:00:09.337Z,100920
2019-04-14T18:05:09.404Z,100917
2019-04-14T18:10:09.371Z,100913
2019-04-14T18:15:11.600Z,100929
2019-04-14T18:20:09.371Z,100937
2019-04-14T18:25:09.378Z,100943
2019-04-14T18:30:09.408Z,100937
2019-04-14T18:35:09.348Z,100937
2019-04-14T18:40:09.385Z,100957
2019-04-14T18:45:09.433Z,100960
2019-04-14T18:50:09.385Z,100962
2019-04-14T18:55:09.392Z,100961
2019-04-14T19:00:09.438Z,100972
2019-04-14T19:05:09.448Z,100969
2019-04-14T19:10:09.399Z,100974
2019-04-14T19:15:09.379Z,100979
2019-04-14T19:20:09.397Z,100986
2019-04-14T19:25:09.376Z,100988
2019-04-14T19:30:09.456Z,100995
2019-04-14T19:35:09.419Z,100983
2019-04-14T19:40:09.416Z,100989
2019-04-14T19:45:09.463Z,100995
2019-04-14T19:50:09.420Z,100997
2019-04-14T19:55:19.718Z,100996
2019-04-14T20:00:09.478Z,101003
2019-04-14T20:05:09.426Z,101010
2019-04-14T20:10:09.461Z,101017
2019-04-14T20:15:09.433Z,101018
2019-04-14T20:20:09.430Z,101011
2019-04-14T20:25:09.454Z,101026
2019-04-14T20:30:09.444Z,101023
2019-04-14T20:35:09.466Z,101025
2019-04-14T20:40:09.589Z,101030
2019-04-14T20:45:09.434Z,101035
2019-04-14T20:50:09.492Z,101036
2019-04-14T20:55:09.485Z,101033
2019-04-14T21:00:09.458Z,101042
2019-04-14T21:05:09.501Z,101037
2019-04-14T21:10:09.621Z,101034
2019-04-14T21:15:09.455Z,101037
2019-04-14T21:20:09.540Z,101039
2019-04-14T21:25:09.429Z,101042
2019-04-14T21:30:09.476Z,101043
2019-04-14T21:35:09.466Z,101046
2019-04-14T21:40:09.500Z,101041
2019-04-14T21:45:09.513Z,101052
2019-04-14T21:50:09.485Z,101053
2019-04-14T21:55:09.442Z,101066
2019-04-14T22:00:09.513Z,101064
2019-04-14T22:05:09.448Z,101069
2019-04-14T22:10:09.535Z,101077
2019-04-14T22:15:09.485Z,101075
2019-04-14T22:20:09.496Z,101082
2019-04-14T22:25:09.494Z,101080
2019-04-14T22:30:09.759Z,101082
2019-04-14T22:35:09.742Z,101084
2019-04-14T22:40:09.741Z,101094
2019-04-14T22:45:09.718Z,101104
2019-04-14T22:50:09.745Z,101107
2019-04-14T22:55:09.733Z,101111
2019-04-14T23:00:09.739Z,101111
2019-04-14T23:05:09.742Z,101107
2019-04-14T23:10:09.730Z,101114
2019-04-14T23:15:09.748Z,101108
2019-04-14T23:20:09.761Z,101116
2019-04-14T23:25:09.704Z,101114
2019-04-14T23:30:09.750Z,101113
2019-04-14T23:35:09.764Z,101118
2019-04-14T23:40:09.713Z,101108
2019-04-14T23:45:09.767Z,101117
2019-04-14T23:50:09.758Z,101121
2019-04-14T23:55:09.767Z,101119
